Katerina L — 3FQL2 — position and weather

sailwx.info

Track history (hours):
 
Tides and Currents Weather Stations Pressure Air Temp Water Temp Dewpoint Dewpoint Depression Visibility Wind Speed Wind Dir Waves Ship Positions

Katerina L

Last reported at 2014-Sep-21 20:27 UTC. Time now 2014-Sep-23 00:25 UTC.
Position N 36°46' E 026°34'.

Length 91 m; draft 5.2 m.

Type: Tanker. MMSI: 356460000.

Date/timePositionNaut miles runAvg speedWind from/ knotsBaromVisibWave heightAir tempDewpointWater temp
2014-Sep-21 20:27N 36°46' E 026°34'8 8.3
2014-Sep-21 19:27N 36°51' E 026°26'16 8.6
2014-Sep-21 17:33N 36°60' E 026°09'9 9.1
2014-Sep-21 16:33N 37°05' E 026°00'9 8.5
2014-Sep-21 15:32N 37°10' E 025°51'8 8.0
2014-Sep-21 14:33N 37°14' E 025°42'8 8.2
2014-Sep-21 13:33N 37°16' E 025°32'8 7.8
2014-Sep-21 12:33N 37°18' E 025°23'8 7.9
2014-Sep-21 11:33N 37°20' E 025°13'8 7.8
2014-Sep-21 10:33N 37°23' E 025°04'5 4.8
2014-Sep-21 09:33N 37°25' E 024°59'0 0.0
2014-Sep-21 08:33N 37°25' E 024°59'0 0.0
2014-Sep-21 07:33N 37°25' E 024°59'0 0.0
2014-Sep-21 06:33N 37°25' E 024°59'0 0.1
2014-Sep-21 05:33N 37°25' E 024°59'0 0.0
2014-Sep-21 04:33N 37°25' E 024°59'0 0.1
2014-Sep-21 03:33N 37°25' E 024°59'5 4.7
2014-Sep-21 02:33N 37°30' E 025°01'9 7.9
2014-Sep-21 01:26N 37°33' E 024°50'7 8.2
2014-Sep-21 00:33N 37°32' E 024°41'0 0.4
2014-Sep-20 23:33N 37°32' E 024°41'9 7.8
2014-Sep-20 22:26N 37°31' E 024°30'14 7.0
2014-Sep-20 20:31N 37°30' E 024°13'22 7.2
2014-Sep-20 17:28N 37°38' E 023°47'6 6.6
2014-Sep-20 16:33N 37°42' E 023°41'7 7.1
2014-Sep-20 15:33N 37°49' E 023°37'7 6.7
2014-Sep-20 14:33N 37°50' E 023°29'7 7.0
2014-Sep-20 13:33N 37°52' E 023°20'7 7.3
2014-Sep-20 12:33N 37°53' E 023°11'5 2.3
2014-Sep-20 10:30N 37°55' E 023°05'0 0.0
2014-Sep-20 09:27N 37°55' E 023°05'0 0.0
2014-Sep-20 08:31N 37°55' E 023°05'0 0.0
2014-Sep-20 07:33N 37°55' E 023°05'0 0.0
2014-Sep-20 05:17N 37°55' E 023°05'0 0.0
2014-Sep-20 04:33N 37°55' E 023°05'0 0.0
2014-Sep-20 03:29N 37°55' E 023°05'0 0.0
2014-Sep-20 02:24N 37°55' E 023°05'0 0.0
2014-Sep-20 01:33N 37°55' E 023°05'0 0.0
2014-Sep-20 00:33N 37°55' E 023°05'0 0.0
2014-Sep-19 23:33N 37°55' E 023°05'0 0.0
2014-Sep-19 22:32N 37°55' E 023°05'0 0.0
2014-Sep-19 21:33N 37°55' E 023°05'0 0.0
2014-Sep-19 20:33N 37°55' E 023°05'0 0.0
2014-Sep-19 19:33N 37°55' E 023°05'0 0.0
2014-Sep-19 18:34N 37°55' E 023°05'0 0.0
2014-Sep-19 17:34N 37°55' E 023°05'0 0.0
2014-Sep-19 16:34N 37°55' E 023°05'0 0.0
2014-Sep-19 15:33N 37°55' E 023°05'0 0.0
2014-Sep-19 14:33N 37°55' E 023°05'0 0.0
2014-Sep-19 13:34N 37°55' E 023°05'0 0.0
2014-Sep-19 12:34N 37°55' E 023°05'0 0.0
2014-Sep-19 11:32N 37°55' E 023°05'0 0.0
2014-Sep-19 10:31N 37°55' E 023°05'0 0.0
2014-Sep-19 09:32N 37°55' E 023°05'0 0.0
2014-Sep-19 08:26N 37°55' E 023°05'0 0.0
2014-Sep-19 07:33N 37°55' E 023°05'0 0.0
2014-Sep-19 06:23N 37°55' E 023°05'6 1.3
2014-Sep-19 01:32N 37°53' E 023°13'6 6.6
2014-Sep-19 00:33N 37°50' E 023°20'5 4.8
2014-Sep-18 23:32N 37°53' E 023°15'2 1.6
2014-Sep-18 22:14N 37°52' E 023°17'5 7.4
2014-Sep-18 21:33N 37°51' E 023°24'8 7.9
2014-Sep-18 20:33N 37°50' E 023°33'7 7.0
2014-Sep-18 19:33N 37°47' E 023°41'7 7.4
2014-Sep-18 18:33N 37°41' E 023°46'8 8.0
2014-Sep-18 17:32N 37°37' E 023°55'16 7.4
2014-Sep-18 15:18N 37°30' E 024°14'14 7.5
2014-Sep-18 13:30N 37°29' E 024°31'7 7.0
2014-Sep-18 12:26N 37°26' E 024°40'6 7.3
2014-Sep-18 11:33N 37°22' E 024°47'7 7.2
2014-Sep-18 10:33N 37°19' E 024°55'8 7.7
2014-Sep-18 09:33N 37°18' E 025°04'7 7.4
2014-Sep-18 08:33N 37°17' E 025°13'8 7.6
2014-Sep-18 07:33N 37°16' E 025°23'8 7.7
2014-Sep-18 06:33N 37°15' E 025°33'7 6.5
2014-Sep-18 05:32N 37°14' E 025°41'6 6.1
2014-Sep-18 04:33N 37°12' E 025°48'5 5.2
2014-Sep-18 03:33N 37°09' E 025°53'5 4.7
2014-Sep-18 02:33N 37°06' E 025°58'5 4.6
2014-Sep-18 01:33N 37°03' E 026°03'5 4.9
2014-Sep-18 00:33N 37°01' E 026°08'121 5.7
2014-Sep-17 03:06N 35°43' E 028°04'232 6.5
2014-Sep-15 15:28N 34°35' E 032°36'6 6.5
2014-Sep-15 14:30N 34°33' E 032°43'6 6.3
2014-Sep-15 13:32N 34°32' E 032°50'6 6.0
2014-Sep-15 12:33N 34°30' E 032°57'6 5.7
2014-Sep-15 11:28N 34°31' E 033°04'6 5.9
2014-Sep-15 10:31N 34°34' E 033°10'7 6.6
2014-Sep-15 09:29N 34°37' E 033°17'7 7.7
2014-Sep-15 08:33N 34°41' E 033°25'8 8.0
2014-Sep-15 07:33N 34°45' E 033°33'12 0.3
2014-Sep-13 11:30N 34°56' E 033°39'24 2.0
2014-Sep-12 23:06N 34°38' E 033°19'4 7.0
2014-Sep-12 22:33N 34°36' E 033°15'7 7.2
2014-Sep-12 21:33N 34°32' E 033°07'7 7.3
2014-Sep-12 20:33N 34°29' E 032°59'7 7.1
2014-Sep-12 19:33N 34°31' E 032°51'7 6.9
2014-Sep-12 18:33N 34°33' E 032°43'8 7.3
2014-Sep-12 17:30N 34°35' E 032°34'  
Track history (hours):
 
Tides and Currents Weather Stations Pressure Air Temp Water Temp Dewpoint Dewpoint Depression Visibility Wind Speed Wind Dir Waves Ship Positions

Katerina L

Last reported at 2014-Sep-21 20:27 UTC. Time now 2014-Sep-23 00:25 UTC.
Position N 36°46' E 026°34'.

Length 91 m; draft 5.2 m.

Type: Tanker. MMSI: 356460000.

Date/timePositionNaut miles runAvg speedWind from/ knotsBaromVisibWave heightAir tempDewpointWater temp
2014-Sep-21 20:27N 36°46' E 026°34'8 8.3
2014-Sep-21 19:27N 36°51' E 026°26'16 8.6
2014-Sep-21 17:33N 36°60' E 026°09'9 9.1
2014-Sep-21 16:33N 37°05' E 026°00'9 8.5
2014-Sep-21 15:32N 37°10' E 025°51'8 8.0
2014-Sep-21 14:33N 37°14' E 025°42'8 8.2
2014-Sep-21 13:33N 37°16' E 025°32'8 7.8
2014-Sep-21 12:33N 37°18' E 025°23'8 7.9
2014-Sep-21 11:33N 37°20' E 025°13'8 7.8
2014-Sep-21 10:33N 37°23' E 025°04'5 4.8
2014-Sep-21 09:33N 37°25' E 024°59'0 0.0
2014-Sep-21 08:33N 37°25' E 024°59'0 0.0
2014-Sep-21 07:33N 37°25' E 024°59'0 0.0
2014-Sep-21 06:33N 37°25' E 024°59'0 0.1
2014-Sep-21 05:33N 37°25' E 024°59'0 0.0
2014-Sep-21 04:33N 37°25' E 024°59'0 0.1
2014-Sep-21 03:33N 37°25' E 024°59'5 4.7
2014-Sep-21 02:33N 37°30' E 025°01'9 7.9
2014-Sep-21 01:26N 37°33' E 024°50'7 8.2
2014-Sep-21 00:33N 37°32' E 024°41'0 0.4
2014-Sep-20 23:33N 37°32' E 024°41'9 7.8
2014-Sep-20 22:26N 37°31' E 024°30'14 7.0
2014-Sep-20 20:31N 37°30' E 024°13'22 7.2
2014-Sep-20 17:28N 37°38' E 023°47'6 6.6
2014-Sep-20 16:33N 37°42' E 023°41'7 7.1
2014-Sep-20 15:33N 37°49' E 023°37'7 6.7
2014-Sep-20 14:33N 37°50' E 023°29'7 7.0
2014-Sep-20 13:33N 37°52' E 023°20'7 7.3
2014-Sep-20 12:33N 37°53' E 023°11'5 2.3
2014-Sep-20 10:30N 37°55' E 023°05'0 0.0
2014-Sep-20 09:27N 37°55' E 023°05'0 0.0
2014-Sep-20 08:31N 37°55' E 023°05'0 0.0
2014-Sep-20 07:33N 37°55' E 023°05'0 0.0
2014-Sep-20 05:17N 37°55' E 023°05'0 0.0
2014-Sep-20 04:33N 37°55' E 023°05'0 0.0
2014-Sep-20 03:29N 37°55' E 023°05'0 0.0
2014-Sep-20 02:24N 37°55' E 023°05'0 0.0
2014-Sep-20 01:33N 37°55' E 023°05'0 0.0
2014-Sep-20 00:33N 37°55' E 023°05'0 0.0
2014-Sep-19 23:33N 37°55' E 023°05'0 0.0
2014-Sep-19 22:32N 37°55' E 023°05'0 0.0
2014-Sep-19 21:33N 37°55' E 023°05'0 0.0
2014-Sep-19 20:33N 37°55' E 023°05'0 0.0
2014-Sep-19 19:33N 37°55' E 023°05'0 0.0
2014-Sep-19 18:34N 37°55' E 023°05'0 0.0
2014-Sep-19 17:34N 37°55' E 023°05'0 0.0
2014-Sep-19 16:34N 37°55' E 023°05'0 0.0
2014-Sep-19 15:33N 37°55' E 023°05'0 0.0
2014-Sep-19 14:33N 37°55' E 023°05'0 0.0
2014-Sep-19 13:34N 37°55' E 023°05'0 0.0
2014-Sep-19 12:34N 37°55' E 023°05'0 0.0
2014-Sep-19 11:32N 37°55' E 023°05'0 0.0
2014-Sep-19 10:31N 37°55' E 023°05'0 0.0
2014-Sep-19 09:32N 37°55' E 023°05'0 0.0
2014-Sep-19 08:26N 37°55' E 023°05'0 0.0
2014-Sep-19 07:33N 37°55' E 023°05'0 0.0
2014-Sep-19 06:23N 37°55' E 023°05'6 1.3
2014-Sep-19 01:32N 37°53' E 023°13'6 6.6
2014-Sep-19 00:33N 37°50' E 023°20'5 4.8
2014-Sep-18 23:32N 37°53' E 023°15'2 1.6
2014-Sep-18 22:14N 37°52' E 023°17'5 7.4
2014-Sep-18 21:33N 37°51' E 023°24'8 7.9
2014-Sep-18 20:33N 37°50' E 023°33'7 7.0
2014-Sep-18 19:33N 37°47' E 023°41'7 7.4
2014-Sep-18 18:33N 37°41' E 023°46'8 8.0
2014-Sep-18 17:32N 37°37' E 023°55'16 7.4
2014-Sep-18 15:18N 37°30' E 024°14'14 7.5
2014-Sep-18 13:30N 37°29' E 024°31'7 7.0
2014-Sep-18 12:26N 37°26' E 024°40'6 7.3
2014-Sep-18 11:33N 37°22' E 024°47'7 7.2
2014-Sep-18 10:33N 37°19' E 024°55'8 7.7
2014-Sep-18 09:33N 37°18' E 025°04'7 7.4
2014-Sep-18 08:33N 37°17' E 025°13'8 7.6
2014-Sep-18 07:33N 37°16' E 025°23'8 7.7
2014-Sep-18 06:33N 37°15' E 025°33'7 6.5
2014-Sep-18 05:32N 37°14' E 025°41'6 6.1
2014-Sep-18 04:33N 37°12' E 025°48'5 5.2
2014-Sep-18 03:33N 37°09' E 025°53'5 4.7
2014-Sep-18 02:33N 37°06' E 025°58'5 4.6
2014-Sep-18 01:33N 37°03' E 026°03'5 4.9
2014-Sep-18 00:33N 37°01' E 026°08'121 5.7
2014-Sep-17 03:06N 35°43' E 028°04'232 6.5
2014-Sep-15 15:28N 34°35' E 032°36'6 6.5
2014-Sep-15 14:30N 34°33' E 032°43'6 6.3
2014-Sep-15 13:32N 34°32' E 032°50'6 6.0
2014-Sep-15 12:33N 34°30' E 032°57'6 5.7
2014-Sep-15 11:28N 34°31' E 033°04'6 5.9
2014-Sep-15 10:31N 34°34' E 033°10'7 6.6
2014-Sep-15 09:29N 34°37' E 033°17'7 7.7
2014-Sep-15 08:33N 34°41' E 033°25'8 8.0
2014-Sep-15 07:33N 34°45' E 033°33'12 0.3
2014-Sep-13 11:30N 34°56' E 033°39'24 2.0
2014-Sep-12 23:06N 34°38' E 033°19'4 7.0
2014-Sep-12 22:33N 34°36' E 033°15'7 7.2
2014-Sep-12 21:33N 34°32' E 033°07'7 7.3
2014-Sep-12 20:33N 34°29' E 032°59'7 7.1
2014-Sep-12 19:33N 34°31' E 032°51'7 6.9
2014-Sep-12 18:33N 34°33' E 032°43'8 7.3
2014-Sep-12 17:30N 34°35' E 032°34'  

Dump ship's entire track history